Station Historical Data
Daily Summary for April 10, 2017 Units:  Both    English   Metric
« Previous Day
Next Day »
Daily Weekly Monthly Yearly Custom
  High: Low: Average:
Temperature: 75.7 °F /  24.3 °C 53.7 °F /  12.1 °C 66.1 °F /  18.9 °C
Dew Point: 53.2 °F /  11.8 °C 31.4 °F /  -0.3 °C 42.2 °F /  5.7 °C
Humidity: 78% 30% 43%
Wind Speed: 20.0mph /  32.2km/h - 5.2mph /  8.4km/h
Wind Gust: 28.0mph /  45.1km/h - -
Wind- - SW
Pressure: 30.00 in /  1015.8 hPa 29.86 in /  1011.1 hPa -
Precipitation: 0.00 in /  0 mm    
Historical Graphs
 
 
Tabular Data for April 10, 2017
Time Temperature Dew Point Pressure Wind Wind Speed Wind Gust Humidity Rainfall Rate (Hourly)
00:04 62.7 °F /  17.1 °C 34.6 °F /  1.4 °C 29.95in /  1014.1hPa SSE 2.0mph /  3.2km/h 6.0mph /  9.7km/h 35% 0.00in /  0mm
00:09 62.6 °F /  17 °C 34.5 °F /  1.4 °C 29.95in /  1014.1hPa South 3.0mph /  4.8km/h 8.0mph /  12.9km/h 35% 0.00in /  0mm
00:14 62.4 °F /  16.9 °C 34.4 °F /  1.3 °C 29.95in /  1014.1hPa SSW 3.0mph /  4.8km/h 8.0mph /  12.9km/h 35% 0.00in /  0mm
00:19 62.2 °F /  16.8 °C 34.2 °F /  1.2 °C 29.95in /  1014.1hPa SSW 2.0mph /  3.2km/h 6.0mph /  9.7km/h 35% 0.00in /  0mm
00:24 62.1 °F /  16.7 °C 34.1 °F /  1.2 °C 29.95in /  1014.1hPa South 3.0mph /  4.8km/h 6.0mph /  9.7km/h 35% 0.00in /  0mm
00:29 61.8 °F /  16.6 °C 34.5 °F /  1.4 °C 29.95in /  1014.1hPa South 2.0mph /  3.2km/h 4.0mph /  6.4km/h 36% 0.00in /  0mm
00:34 61.5 °F /  16.4 °C 34.3 °F /  1.3 °C 29.95in /  1014.1hPa SSW 1.0mph /  1.6km/h 5.0mph /  8km/h 36% 0.00in /  0mm
00:39 61.2 °F /  16.2 °C 34.0 °F /  1.1 °C 29.95in /  1014.1hPa SSW 1.0mph /  1.6km/h 3.0mph /  4.8km/h 36% 0.00in /  0mm
00:44 60.9 °F /  16.1 °C 33.7 °F /  0.9 °C 29.95in /  1014.1hPa SSW 2.0mph /  3.2km/h 4.0mph /  6.4km/h 36% 0.00in /  0mm
00:49 60.7 °F /  15.9 °C 34.3 °F /  1.3 °C 29.95in /  1014.1hPa SW 1.0mph /  1.6km/h 4.0mph /  6.4km/h 37% 0.00in /  0mm
00:54 60.4 °F /  15.8 °C 34.0 °F /  1.1 °C 29.95in /  1014.1hPa SSW 1.0mph /  1.6km/h 4.0mph /  6.4km/h 37% 0.00in /  0mm
00:59 60.3 °F /  15.7 °C 34.6 °F /  1.4 °C 29.95in /  1014.1hPa SSW 1.0mph /  1.6km/h 3.0mph /  4.8km/h 38% 0.00in /  0mm
01:04 59.9 °F /  15.5 °C 34.2 °F /  1.2 °C 29.95in /  1014.1hPa Calm     38% 0.00in /  0mm
01:09 59.7 °F /  15.4 °C 34.0 °F /  1.1 °C 29.96in /  1014.4hPa Calm     38% 0.00in /  0mm
01:14 59.4 °F /  15.2 °C 34.4 °F /  1.3 °C 29.96in /  1014.4hPa Calm   2.0mph /  3.2km/h 39% 0.00in /  0mm
01:19 59.0 °F /  15 °C 34.1 °F /  1.2 °C 29.96in /  1014.4hPa Calm   2.0mph /  3.2km/h 39% 0.00in /  0mm
01:24 58.5 °F /  14.7 °C 34.2 °F /  1.2 °C 29.95in /  1014.1hPa Calm   2.0mph /  3.2km/h 40% 0.00in /  0mm
01:29 58.1 °F /  14.5 °C 33.9 °F /  1.1 °C 29.96in /  1014.4hPa Calm   2.0mph /  3.2km/h 40% 0.00in /  0mm
01:34 57.7 °F /  14.3 °C 34.1 °F /  1.2 °C 29.95in /  1014.1hPa Calm     41% 0.00in /  0mm
01:39 57.3 °F /  14.1 °C 33.8 °F /  1 °C 29.95in /  1014.1hPa Calm     41% 0.00in /  0mm
01:44 56.9 °F /  13.8 °C 34.0 °F /  1.1 °C 29.95in /  1014.1hPa Calm     42% 0.00in /  0mm
01:49 56.4 °F /  13.6 °C 33.6 °F /  0.9 °C 29.95in /  1014.1hPa Calm     42% 0.00in /  0mm
01:54 55.9 °F /  13.3 °C 33.7 °F /  0.9 °C 29.95in /  1014.1hPa Calm     43% 0.00in /  0mm
01:59 55.4 °F /  13 °C 33.3 °F /  0.7 °C 29.95in /  1014.1hPa Calm     43% 0.00in /  0mm
02:04 55.1 °F /  12.8 °C 34.1 °F /  1.2 °C 29.95in /  1014.1hPa SE 5.0mph /  8km/h 8.0mph /  12.9km/h 45% 0.00in /  0mm
02:09 54.7 °F /  12.6 °C 33.8 °F /  1 °C 29.94in /  1013.8hPa SSW 2.0mph /  3.2km/h 5.0mph /  8km/h 45% 0.00in /  0mm
02:14 54.4 °F /  12.4 °C 34.0 °F /  1.1 °C 29.94in /  1013.8hPa SSW 2.0mph /  3.2km/h 5.0mph /  8km/h 46% 0.00in /  0mm
02:19 54.3 °F /  12.4 °C 33.4 °F /  0.8 °C 29.94in /  1013.8hPa SSW 2.0mph /  3.2km/h 5.0mph /  8km/h 45% 0.00in /  0mm
02:24 54.2 °F /  12.3 °C 33.9 °F /  1.1 °C 29.94in /  1013.8hPa SSW 2.0mph /  3.2km/h 4.0mph /  6.4km/h 46% 0.00in /  0mm
02:29 54.1 °F /  12.3 °C 33.8 °F /  1 °C 29.94in /  1013.8hPa SSW 1.0mph /  1.6km/h 5.0mph /  8km/h 46% 0.00in /  0mm
02:34 54.0 °F /  12.2 °C 33.7 °F /  0.9 °C 29.94in /  1013.8hPa SSW 1.0mph /  1.6km/h 5.0mph /  8km/h 46% 0.00in /  0mm
02:39 53.8 °F /  12.1 °C 33.5 °F /  0.8 °C 29.94in /  1013.8hPa South 3.0mph /  4.8km/h 3.0mph /  4.8km/h 46% 0.00in /  0mm
02:44 53.8 °F /  12.1 °C 33.5 °F /  0.8 °C 29.94in /  1013.8hPa South 2.0mph /  3.2km/h 4.0mph /  6.4km/h 46% 0.00in /  0mm
02:49 53.7 °F /  12.1 °C 33.4 °F /  0.8 °C 29.94in /  1013.8hPa South 2.0mph /  3.2km/h 3.0mph /  4.8km/h 46% 0.00in /  0mm
02:54 53.7 °F /  12.1 °C 33.4 °F /  0.8 °C 29.94in /  1013.8hPa SSW 2.0mph /  3.2km/h 4.0mph /  6.4km/h 46% 0.00in /  0mm
02:59 53.7 °F /  12.1 °C 32.8 °F /  0.4 °C 29.94in /  1013.8hPa South 1.0mph /  1.6km/h 4.0mph /  6.4km/h 45% 0.00in /  0mm
03:04 53.8 °F /  12.1 °C 32.9 °F /  0.5 °C 29.94in /  1013.8hPa South 2.0mph /  3.2km/h 4.0mph /  6.4km/h 45% 0.00in /  0mm
03:09 53.9 °F /  12.2 °C 33.0 °F /  0.6 °C 29.94in /  1013.8hPa South 1.0mph /  1.6km/h 4.0mph /  6.4km/h 45% 0.00in /  0mm
03:14 54.1 °F /  12.3 °C 33.2 °F /  0.7 °C 29.93in /  1013.4hPa South 2.0mph /  3.2km/h 4.0mph /  6.4km/h 45% 0.00in /  0mm
03:19 54.2 °F /  12.3 °C 33.3 °F /  0.7 °C 29.93in /  1013.4hPa SSE 2.0mph /  3.2km/h 4.0mph /  6.4km/h 45% 0.00in /  0mm
03:24 54.3 °F /  12.4 °C 33.4 °F /  0.8 °C 29.93in /  1013.4hPa South 2.0mph /  3.2km/h 5.0mph /  8km/h 45% 0.00in /  0mm
03:29 54.5 °F /  12.5 °C 33.6 °F /  0.9 °C 29.93in /  1013.4hPa South 2.0mph /  3.2km/h 5.0mph /  8km/h 45% 0.00in /  0mm
03:34 54.9 °F /  12.7 °C 33.4 °F /  0.8 °C 29.93in /  1013.4hPa South 2.0mph /  3.2km/h 4.0mph /  6.4km/h 44% 0.00in /  0mm
03:39 55.2 °F /  12.9 °C 33.6 °F /  0.9 °C 29.93in /  1013.4hPa South 3.0mph /  4.8km/h 5.0mph /  8km/h 44% 0.00in /  0mm
03:44 55.7 °F /  13.2 °C 33.5 °F /  0.8 °C 29.93in /  1013.4hPa South 3.0mph /  4.8km/h 7.0mph /  11.3km/h 43% 0.00in /  0mm
03:49 56.4 °F /  13.6 °C 33.6 °F /  0.9 °C 29.93in /  1013.4hPa South 3.0mph /  4.8km/h 6.0mph /  9.7km/h 42% 0.00in /  0mm
03:54 56.8 °F /  13.8 °C 33.9 °F /  1.1 °C 29.93in /  1013.4hPa South 2.0mph /  3.2km/h 4.0mph /  6.4km/h 42% 0.00in /  0mm
03:59 57.1 °F /  13.9 °C 33.6 °F /  0.9 °C 29.92in /  1013.1hPa SSE 1.0mph /  1.6km/h 5.0mph /  8km/h 41% 0.00in /  0mm
04:04 57.5 °F /  14.2 °C 33.3 °F /  0.7 °C 29.93in /  1013.4hPa SSW 7.0mph /  11.3km/h 8.0mph /  12.9km/h 40% 0.00in /  0mm
04:09 58.3 °F /  14.6 °C 33.4 °F /  0.8 °C 29.92in /  1013.1hPa South 3.0mph /  4.8km/h 9.0mph /  14.5km/h 39% 0.00in /  0mm
04:14 58.7 °F /  14.8 °C 33.1 °F /  0.6 °C 29.92in /  1013.1hPa South 3.0mph /  4.8km/h 6.0mph /  9.7km/h 38% 0.00in /  0mm
04:19 59.2 °F /  15.1 °C 32.9 °F /  0.5 °C 29.93in /  1013.4hPa South 3.0mph /  4.8km/h 6.0mph /  9.7km/h 37% 0.00in /  0mm
04:24 59.4 °F /  15.2 °C 33.1 °F /  0.6 °C 29.93in /  1013.4hPa South 3.0mph /  4.8km/h 6.0mph /  9.7km/h 37% 0.00in /  0mm
04:29 59.7 °F /  15.4 °C 32.7 °F /  0.4 °C 29.93in /  1013.4hPa South 4.0mph /  6.4km/h 8.0mph /  12.9km/h 36% 0.00in /  0mm
04:34 60.0 °F /  15.6 °C 32.9 °F /  0.5 °C 29.93in /  1013.4hPa South 4.0mph /  6.4km/h 8.0mph /  12.9km/h 36% 0.00in /  0mm
04:39 60.4 °F /  15.8 °C 32.6 °F /  0.3 °C 29.93in /  1013.4hPa SSW 4.0mph /  6.4km/h 9.0mph /  14.5km/h 35% 0.00in /  0mm
04:44 60.7 °F /  15.9 °C 32.9 °F /  0.5 °C 29.92in /  1013.1hPa SSW 5.0mph /  8km/h 9.0mph /  14.5km/h 35% 0.00in /  0mm
04:49 61.1 °F /  16.2 °C 32.5 °F /  0.3 °C 29.92in /  1013.1hPa South 5.0mph /  8km/h 9.0mph /  14.5km/h 34% 0.00in /  0mm
04:54 61.3 °F /  16.3 °C 32.7 °F /  0.4 °C 29.92in /  1013.1hPa SSW 4.0mph /  6.4km/h 10.0mph /  16.1km/h 34% 0.00in /  0mm
04:59 61.6 °F /  16.4 °C 32.9 °F /  0.5 °C 29.92in /  1013.1hPa SSW 8.0mph /  12.9km/h 8.0mph /  12.9km/h 34% 0.00in /  0mm
05:04 61.9 °F /  16.6 °C 31.7 °F /  -0.2 °C 29.92in /  1013.1hPa South 8.0mph /  12.9km/h 11.0mph /  17.7km/h 32% 0.00in /  0mm
05:09 62.4 °F /  16.9 °C 32.1 °F /  0.1 °C 29.92in /  1013.1hPa SW 5.0mph /  8km/h 10.0mph /  16.1km/h 32% 0.00in /  0mm
05:14 62.7 °F /  17.1 °C 32.4 °F /  0.2 °C 29.92in /  1013.1hPa South 2.0mph /  3.2km/h 8.0mph /  12.9km/h 32% 0.00in /  0mm
05:19 62.7 °F /  17.1 °C 32.4 °F /  0.2 °C 29.91in /  1012.8hPa SSW 5.0mph /  8km/h 13.0mph /  20.9km/h 32% 0.00in /  0mm
05:24 62.9 °F /  17.2 °C 32.6 °F /  0.3 °C 29.91in /  1012.8hPa SSW 5.0mph /  8km/h 13.0mph /  20.9km/h 32% 0.00in /  0mm
05:29 63.0 °F /  17.2 °C 31.9 °F /  -0.1 °C 29.91in /  1012.8hPa South 6.0mph /  9.7km/h 15.0mph /  24.1km/h 31% 0.00in /  0mm
05:34 63.1 °F /  17.3 °C 31.9 °F /  -0.1 °C 29.91in /  1012.8hPa SSE 3.0mph /  4.8km/h 12.0mph /  19.3km/h 31% 0.00in /  0mm
05:39 63.0 °F /  17.2 °C 31.9 °F /  -0.1 °C 29.91in /  1012.8hPa South 5.0mph /  8km/h 11.0mph /  17.7km/h 31% 0.00in /  0mm
05:44 63.1 °F /  17.3 °C 32.7 °F /  0.4 °C 29.91in /  1012.8hPa SW 4.0mph /  6.4km/h 14.0mph /  22.5km/h 32% 0.00in /  0mm
05:49 63.1 °F /  17.3 °C 31.9 °F /  -0.1 °C 29.91in /  1012.8hPa SSW 5.0mph /  8km/h 14.0mph /  22.5km/h 31% 0.00in /  0mm
05:54 63.1 °F /  17.3 °C 31.9 °F /  -0.1 °C 29.91in /  1012.8hPa SSW 6.0mph /  9.7km/h 15.0mph /  24.1km/h 31% 0.00in /  0mm
05:59 63.1 °F /  17.3 °C 31.9 °F /  -0.1 °C 29.91in /  1012.8hPa SSW 6.0mph /  9.7km/h 15.0mph /  24.1km/h 31% 0.00in /  0mm
06:04 63.2 °F /  17.3 °C 32.0 °F /  0 °C 29.91in /  1012.8hPa SSW 5.0mph /  8km/h 15.0mph /  24.1km/h 31% 0.00in /  0mm
06:09 63.1 °F /  17.3 °C 31.9 °F /  -0.1 °C 29.91in /  1012.8hPa South 5.0mph /  8km/h 13.0mph /  20.9km/h 31% 0.00in /  0mm
06:14 63.1 °F /  17.3 °C 31.9 °F /  -0.1 °C 29.91in /  1012.8hPa SSW 7.0mph /  11.3km/h 10.0mph /  16.1km/h 31% 0.00in /  0mm
06:19 63.2 °F /  17.3 °C 32.0 °F /  0 °C 29.91in /  1012.8hPa SSW 5.0mph /  8km/h 13.0mph /  20.9km/h 31% 0.00in /  0mm
06:24 63.3 °F /  17.4 °C 32.1 °F /  0.1 °C 29.91in /  1012.8hPa SSW 7.0mph /  11.3km/h 15.0mph /  24.1km/h 31% 0.00in /  0mm
06:29 63.4 °F /  17.4 °C 32.2 °F /  0.1 °C 29.91in /  1012.8hPa South 3.0mph /  4.8km/h 14.0mph /  22.5km/h 31% 0.00in /  0mm
06:34 63.4 °F /  17.4 °C 31.4 °F /  -0.3 °C 29.91in /  1012.8hPa South 9.0mph /  14.5km/h 13.0mph /  20.9km/h 30% 0.00in /  0mm
06:39 63.5 °F /  17.5 °C 31.5 °F /  -0.3 °C 29.90in /  1012.4hPa SW 4.0mph /  6.4km/h 14.0mph /  22.5km/h 30% 0.00in /  0mm
06:44 63.6 °F /  17.6 °C 31.6 °F /  -0.2 °C 29.91in /  1012.8hPa South 7.0mph /  11.3km/h 15.0mph /  24.1km/h 30% 0.00in /  0mm
06:49 63.6 °F /  17.6 °C 31.6 °F /  -0.2 °C 29.91in /  1012.8hPa SSW 7.0mph /  11.3km/h 15.0mph /  24.1km/h 30% 0.00in /  0mm
06:54 63.6 °F /  17.6 °C 32.4 °F /  0.2 °C 29.91in /  1012.8hPa SSW 6.0mph /  9.7km/h 13.0mph /  20.9km/h 31% 0.00in /  0mm
06:59 63.6 °F /  17.6 °C 32.4 °F /  0.2 °C 29.91in /  1012.8hPa SSW 6.0mph /  9.7km/h 13.0mph /  20.9km/h 31% 0.00in /  0mm
07:04 63.6 °F /  17.6 °C 32.4 °F /  0.2 °C 29.91in /  1012.8hPa SSW 6.0mph /  9.7km/h 11.0mph /  17.7km/h 31% 0.00in /  0mm
07:09 63.5 °F /  17.5 °C 32.3 °F /  0.2 °C 29.91in /  1012.8hPa SSW 5.0mph /  8km/h 10.0mph /  16.1km/h 31% 0.00in /  0mm
07:14 63.5 °F /  17.5 °C 32.3 °F /  0.2 °C 29.91in /  1012.8hPa SW 6.0mph /  9.7km/h 14.0mph /  22.5km/h 31% 0.00in /  0mm
07:19 63.6 °F /  17.6 °C 32.4 °F /  0.2 °C 29.91in /  1012.8hPa SW 7.0mph /  11.3km/h 9.0mph /  14.5km/h 31% 0.00in /  0mm
07:24 63.7 °F /  17.6 °C 32.5 °F /  0.3 °C 29.91in /  1012.8hPa South 5.0mph /  8km/h 14.0mph /  22.5km/h 31% 0.00in /  0mm
07:29 63.8 °F /  17.7 °C 32.6 °F /  0.3 °C 29.91in /  1012.8hPa SW 4.0mph /  6.4km/h 12.0mph /  19.3km/h 31% 0.00in /  0mm
07:34 63.9 °F /  17.7 °C 32.6 °F /  0.3 °C 29.91in /  1012.8hPa SSW 7.0mph /  11.3km/h 16.0mph /  25.7km/h 31% 0.00in /  0mm
07:39 64.0 °F /  17.8 °C 32.7 °F /  0.4 °C 29.91in /  1012.8hPa South 4.0mph /  6.4km/h 15.0mph /  24.1km/h 31% 0.00in /  0mm
07:44 64.1 °F /  17.8 °C 32.8 °F /  0.4 °C 29.91in /  1012.8hPa South 7.0mph /  11.3km/h 15.0mph /  24.1km/h 31% 0.00in /  0mm
07:49 64.1 °F /  17.8 °C 32.8 °F /  0.4 °C 29.91in /  1012.8hPa SSW 7.0mph /  11.3km/h 16.0mph /  25.7km/h 31% 0.00in /  0mm
07:54 64.2 °F /  17.9 °C 32.9 °F /  0.5 °C 29.91in /  1012.8hPa SSW 7.0mph /  11.3km/h 16.0mph /  25.7km/h 31% 0.00in /  0mm
07:59 64.3 °F /  17.9 °C 33.0 °F /  0.6 °C 29.91in /  1012.8hPa South 7.0mph /  11.3km/h 16.0mph /  25.7km/h 31% 0.00in /  0mm
08:04 64.4 °F /  18 °C 33.9 °F /  1.1 °C 29.91in /  1012.8hPa SSW 6.0mph /  9.7km/h 12.0mph /  19.3km/h 32% 0.00in /  0mm
08:09 64.5 °F /  18.1 °C 34.0 °F /  1.1 °C 29.91in /  1012.8hPa SSW 4.0mph /  6.4km/h 12.0mph /  19.3km/h 32% 0.00in /  0mm
08:14 64.6 °F /  18.1 °C 34.1 °F /  1.2 °C 29.92in /  1013.1hPa South 8.0mph /  12.9km/h 11.0mph /  17.7km/h 32% 0.00in /  0mm
08:19 64.8 °F /  18.2 °C 34.2 °F /  1.2 °C 29.92in /  1013.1hPa SSW 6.0mph /  9.7km/h 15.0mph /  24.1km/h 32% 0.00in /  0mm
08:24 65.0 °F /  18.3 °C 34.4 °F /  1.3 °C 29.92in /  1013.1hPa SSW 6.0mph /  9.7km/h 15.0mph /  24.1km/h 32% 0.00in /  0mm
08:29 65.3 °F /  18.5 °C 33.9 °F /  1.1 °C 29.92in /  1013.1hPa South 6.0mph /  9.7km/h 12.0mph /  19.3km/h 31% 0.00in /  0mm
08:34 65.5 °F /  18.6 °C 35.6 °F /  2 °C 29.92in /  1013.1hPa South 3.0mph /  4.8km/h 14.0mph /  22.5km/h 33% 0.00in /  0mm
08:39 65.8 °F /  18.8 °C 34.3 °F /  1.3 °C 29.91in /  1012.8hPa South 9.0mph /  14.5km/h 16.0mph /  25.7km/h 31% 0.00in /  0mm
08:44 66.1 °F /  18.9 °C 35.4 °F /  1.9 °C 29.91in /  1012.8hPa South 7.0mph /  11.3km/h 13.0mph /  20.9km/h 32% 0.00in /  0mm
08:49 66.3 °F /  19.1 °C 34.7 °F /  1.5 °C 29.91in /  1012.8hPa SSW 6.0mph /  9.7km/h 16.0mph /  25.7km/h 31% 0.00in /  0mm
08:54 66.5 °F /  19.2 °C 35.7 °F /  2.1 °C 29.91in /  1012.8hPa SSW 7.0mph /  11.3km/h 16.0mph /  25.7km/h 32% 0.00in /  0mm
08:59 66.7 °F /  19.3 °C 35.9 °F /  2.2 °C 29.91in /  1012.8hPa SSW 7.0mph /  11.3km/h 15.0mph /  24.1km/h 32% 0.00in /  0mm
09:04 66.9 °F /  19.4 °C 36.8 °F /  2.7 °C 29.91in /  1012.8hPa SSW 6.0mph /  9.7km/h 14.0mph /  22.5km/h 33% 0.00in /  0mm
09:09 67.2 °F /  19.6 °C 36.3 °F /  2.4 °C 29.92in /  1013.1hPa South 4.0mph /  6.4km/h 11.0mph /  17.7km/h 32% 0.00in /  0mm
09:14 67.6 °F /  19.8 °C 36.7 °F /  2.6 °C 29.92in /  1013.1hPa SW 4.0mph /  6.4km/h 14.0mph /  22.5km/h 32% 0.00in /  0mm
09:19 67.8 °F /  19.9 °C 36.8 °F /  2.7 °C 29.92in /  1013.1hPa SSW 6.0mph /  9.7km/h 14.0mph /  22.5km/h 32% 0.00in /  0mm
09:24 68.2 °F /  20.1 °C 38.0 °F /  3.3 °C 29.92in /  1013.1hPa SSW 7.0mph /  11.3km/h 15.0mph /  24.1km/h 33% 0.00in /  0mm
09:29 68.6 °F /  20.3 °C 37.5 °F /  3.1 °C 29.92in /  1013.1hPa SSW 7.0mph /  11.3km/h 15.0mph /  24.1km/h 32% 0.00in /  0mm
09:34 68.9 °F /  20.5 °C 37.8 °F /  3.2 °C 29.92in /  1013.1hPa SSW 7.0mph /  11.3km/h 17.0mph /  27.4km/h 32% 0.00in /  0mm
09:39 69.3 °F /  20.7 °C 37.3 °F /  2.9 °C 29.92in /  1013.1hPa South 7.0mph /  11.3km/h 17.0mph /  27.4km/h 31% 0.00in /  0mm
09:44 69.6 °F /  20.9 °C 38.4 °F /  3.6 °C 29.92in /  1013.1hPa South 7.0mph /  11.3km/h 11.0mph /  17.7km/h 32% 0.00in /  0mm
09:49 69.6 °F /  20.9 °C 38.4 °F /  3.6 °C 29.92in /  1013.1hPa SSW 8.0mph /  12.9km/h 20.0mph /  32.2km/h 32% 0.00in /  0mm
09:54 69.5 °F /  20.8 °C 39.1 °F /  3.9 °C 29.92in /  1013.1hPa SSW 9.0mph /  14.5km/h 20.0mph /  32.2km/h 33% 0.00in /  0mm
09:59 69.5 °F /  20.8 °C 38.3 °F /  3.5 °C 29.92in /  1013.1hPa SSW 8.0mph /  12.9km/h 17.0mph /  27.4km/h 32% 0.00in /  0mm
10:04 69.4 °F /  20.8 °C 38.2 °F /  3.4 °C 29.92in /  1013.1hPa SSW 7.0mph /  11.3km/h 20.0mph /  32.2km/h 32% 0.00in /  0mm
10:09 69.4 °F /  20.8 °C 39.0 °F /  3.9 °C 29.92in /  1013.1hPa SSW 6.0mph /  9.7km/h 21.0mph /  33.8km/h 33% 0.00in /  0mm
10:14 69.3 °F /  20.7 °C 38.9 °F /  3.8 °C 29.92in /  1013.1hPa South 6.0mph /  9.7km/h 16.0mph /  25.7km/h 33% 0.00in /  0mm
10:19 69.4 °F /  20.8 °C 39.8 °F /  4.3 °C 29.92in /  1013.1hPa SSW 7.0mph /  11.3km/h 16.0mph /  25.7km/h 34% 0.00in /  0mm
10:24 69.5 °F /  20.8 °C 39.9 °F /  4.4 °C 29.92in /  1013.1hPa SSW 7.0mph /  11.3km/h 16.0mph /  25.7km/h 34% 0.00in /  0mm
10:29 69.8 °F /  21 °C 40.2 °F /  4.6 °C 29.92in /  1013.1hPa SSW 7.0mph /  11.3km/h 16.0mph /  25.7km/h 34% 0.00in /  0mm
10:34 70.2 °F /  21.2 °C 40.5 °F /  4.7 °C 29.92in /  1013.1hPa SSW 7.0mph /  11.3km/h 14.0mph /  22.5km/h 34% 0.00in /  0mm
10:39 70.7 °F /  21.5 °C 40.9 °F /  4.9 °C 29.92in /  1013.1hPa WSW 10.0mph /  16.1km/h 20.0mph /  32.2km/h 34% 0.00in /  0mm
10:44 71.1 °F /  21.7 °C 41.3 °F /  5.2 °C 29.92in /  1013.1hPa SSW 8.0mph /  12.9km/h 20.0mph /  32.2km/h 34% 0.00in /  0mm
10:49 71.4 °F /  21.9 °C 40.8 °F /  4.9 °C 29.93in /  1013.4hPa SSW 8.0mph /  12.9km/h 19.0mph /  30.6km/h 33% 0.00in /  0mm
10:54 71.3 °F /  21.8 °C 41.5 °F /  5.3 °C 29.93in /  1013.4hPa South 8.0mph /  12.9km/h 16.0mph /  25.7km/h 34% 0.00in /  0mm
10:59 71.2 °F /  21.8 °C 41.4 °F /  5.2 °C 29.92in /  1013.1hPa SW 6.0mph /  9.7km/h 17.0mph /  27.4km/h 34% 0.00in /  0mm
11:04 71.2 °F /  21.8 °C 42.1 °F /  5.6 °C 29.92in /  1013.1hPa WSW 8.0mph /  12.9km/h 16.0mph /  25.7km/h 35% 0.00in /  0mm
11:09 71.1 °F /  21.7 °C 42.0 °F /  5.6 °C 29.92in /  1013.1hPa SW 8.0mph /  12.9km/h 17.0mph /  27.4km/h 35% 0.00in /  0mm
11:14 71.4 °F /  21.9 °C 43.0 °F /  6.1 °C 29.92in /  1013.1hPa SW 5.0mph /  8km/h 15.0mph /  24.1km/h 36% 0.00in /  0mm
11:19 71.9 °F /  22.2 °C 43.5 °F /  6.4 °C 29.93in /  1013.4hPa SSW 8.0mph /  12.9km/h 16.0mph /  25.7km/h 36% 0.00in /  0mm
11:24 72.4 °F /  22.4 °C 43.2 °F /  6.2 °C 29.93in /  1013.4hPa SSW 8.0mph /  12.9km/h 21.0mph /  33.8km/h 35% 0.00in /  0mm
11:29 72.5 °F /  22.5 °C 44.0 °F /  6.7 °C 29.93in /  1013.4hPa SSW 8.0mph /  12.9km/h 21.0mph /  33.8km/h 36% 0.00in /  0mm
11:34 72.9 °F /  22.7 °C 43.6 °F /  6.4 °C 29.93in /  1013.4hPa SW 9.0mph /  14.5km/h 18.0mph /  29km/h 35% 0.00in /  0mm
11:39 73.2 °F /  22.9 °C 43.9 °F /  6.6 °C 29.93in /  1013.4hPa SW 9.0mph /  14.5km/h 21.0mph /  33.8km/h 35% 0.00in /  0mm
11:44 73.3 °F /  22.9 °C 44.0 °F /  6.7 °C 29.93in /  1013.4hPa South 20.0mph /  32.2km/h 21.0mph /  33.8km/h 35% 0.00in /  0mm
11:49 73.1 °F /  22.8 °C 44.5 °F /  6.9 °C 29.93in /  1013.4hPa SW 9.0mph /  14.5km/h 21.0mph /  33.8km/h 36% 0.00in /  0mm
11:54 73.2 °F /  22.9 °C 45.4 °F /  7.4 °C 29.93in /  1013.4hPa SW 8.0mph /  12.9km/h 20.0mph /  32.2km/h 37% 0.00in /  0mm
11:59 73.2 °F /  22.9 °C 45.4 °F /  7.4 °C 29.93in /  1013.4hPa SW 9.0mph /  14.5km/h 18.0mph /  29km/h 37% 0.00in /  0mm
12:04 73.3 °F /  22.9 °C 46.2 °F /  7.9 °C 29.92in /  1013.1hPa SW 10.0mph /  16.1km/h 22.0mph /  35.4km/h 38% 0.00in /  0mm
12:09 73.4 °F /  23 °C 45.5 °F /  7.5 °C 29.92in /  1013.1hPa South 11.0mph /  17.7km/h 19.0mph /  30.6km/h 37% 0.00in /  0mm
12:14 73.6 °F /  23.1 °C 45.7 °F /  7.6 °C 29.93in /  1013.4hPa South 6.0mph /  9.7km/h 27.0mph /  43.5km/h 37% 0.00in /  0mm
12:19 73.9 °F /  23.3 °C 46.0 °F /  7.8 °C 29.93in /  1013.4hPa SW 10.0mph /  16.1km/h 27.0mph /  43.5km/h 37% 0.00in /  0mm
12:24 74.2 °F /  23.4 °C 45.5 °F /  7.5 °C 29.93in /  1013.4hPa SSW 8.0mph /  12.9km/h 20.0mph /  32.2km/h 36% 0.00in /  0mm
12:29 74.4 °F /  23.6 °C 47.1 °F /  8.4 °C 29.93in /  1013.4hPa WSW 10.0mph /  16.1km/h 15.0mph /  24.1km/h 38% 0.00in /  0mm
12:34 74.9 °F /  23.8 °C 46.9 °F /  8.3 °C 29.93in /  1013.4hPa SW 8.0mph /  12.9km/h 17.0mph /  27.4km/h 37% 0.00in /  0mm
12:39 75.1 °F /  23.9 °C 47.0 °F /  8.3 °C 29.93in /  1013.4hPa WSW 11.0mph /  17.7km/h 23.0mph /  37km/h 37% 0.00in /  0mm
12:44 75.0 °F /  23.9 °C 47.0 °F /  8.3 °C 29.93in /  1013.4hPa SSW 18.0mph /  29km/h 19.0mph /  30.6km/h 37% 0.00in /  0mm
12:49 75.1 °F /  23.9 °C 47.0 °F /  8.3 °C 29.93in /  1013.4hPa SW 11.0mph /  17.7km/h 20.0mph /  32.2km/h 37% 0.00in /  0mm
12:54 75.1 °F /  23.9 °C 47.0 °F /  8.3 °C 29.93in /  1013.4hPa SW 10.0mph /  16.1km/h 20.0mph /  32.2km/h 37% 0.00in /  0mm
12:59 75.0 °F /  23.9 °C 47.0 °F /  8.3 °C 29.93in /  1013.4hPa SW 10.0mph /  16.1km/h 21.0mph /  33.8km/h 37% 0.00in /  0mm
13:04 74.7 °F /  23.7 °C 47.4 °F /  8.6 °C 29.93in /  1013.4hPa WSW 11.0mph /  17.7km/h 21.0mph /  33.8km/h 38% 0.00in /  0mm
13:09 74.7 °F /  23.7 °C 47.4 °F /  8.6 °C 29.93in /  1013.4hPa WSW 11.0mph /  17.7km/h 21.0mph /  33.8km/h 38% 0.00in /  0mm
13:14 74.8 °F /  23.8 °C 47.5 °F /  8.6 °C 29.93in /  1013.4hPa WNW 14.0mph /  22.5km/h 24.0mph /  38.6km/h 38% 0.00in /  0mm
13:19 74.7 °F /  23.7 °C 48.8 °F /  9.3 °C 29.93in /  1013.4hPa WSW 12.0mph /  19.3km/h 24.0mph /  38.6km/h 40% 0.00in /  0mm
13:24 75.0 °F /  23.9 °C 48.4 °F /  9.1 °C 29.93in /  1013.4hPa WSW 6.0mph /  9.7km/h 21.0mph /  33.8km/h 39% 0.00in /  0mm
13:29 75.2 °F /  24 °C 47.8 °F /  8.8 °C 29.93in /  1013.4hPa SE 7.0mph /  11.3km/h 24.0mph /  38.6km/h 38% 0.00in /  0mm
13:34 75.3 °F /  24.1 °C 49.3 °F /  9.6 °C 29.92in /  1013.1hPa WSW 12.0mph /  19.3km/h 20.0mph /  32.2km/h 40% 0.00in /  0mm
13:39 75.5 °F /  24.2 °C 48.1 °F /  8.9 °C 29.92in /  1013.1hPa South 15.0mph /  24.1km/h 22.0mph /  35.4km/h 38% 0.00in /  0mm
13:44 75.7 °F /  24.3 °C 49.0 °F /  9.4 °C 29.93in /  1013.4hPa SW 9.0mph /  14.5km/h 19.0mph /  30.6km/h 39% 0.00in /  0mm
13:49 75.5 °F /  24.2 °C 48.8 °F /  9.3 °C 29.92in /  1013.1hPa WNW 10.0mph /  16.1km/h 19.0mph /  30.6km/h 39% 0.00in /  0mm
13:54 75.3 °F /  24.1 °C 47.9 °F /  8.8 °C 29.92in /  1013.1hPa WSW 11.0mph /  17.7km/h 21.0mph /  33.8km/h 38% 0.00in /  0mm
13:59 74.7 °F /  23.7 °C 48.1 °F /  8.9 °C 29.92in /  1013.1hPa WSW 12.0mph /  19.3km/h 24.0mph /  38.6km/h 39% 0.00in /  0mm
14:04 74.7 °F /  23.7 °C 49.4 °F /  9.7 °C 29.91in /  1012.8hPa WSW 11.0mph /  17.7km/h 24.0mph /  38.6km/h 41% 0.00in /  0mm
14:09 74.9 °F /  23.8 °C 48.3 °F /  9.1 °C 29.91in /  1012.8hPa SW 11.0mph /  17.7km/h 22.0mph /  35.4km/h 39% 0.00in /  0mm
14:14 75.0 °F /  23.9 °C 49.0 °F /  9.4 °C 29.91in /  1012.8hPa WSW 13.0mph /  20.9km/h 22.0mph /  35.4km/h 40% 0.00in /  0mm
14:19 74.7 °F /  23.7 °C 48.1 °F /  8.9 °C 29.90in /  1012.4hPa WSW 12.0mph /  19.3km/h 22.0mph /  35.4km/h 39% 0.00in /  0mm
14:24 74.3 °F /  23.5 °C 48.4 °F /  9.1 °C 29.90in /  1012.4hPa SW 13.0mph /  20.9km/h 24.0mph /  38.6km/h 40% 0.00in /  0mm
14:29 74.5 °F /  23.6 °C 48.6 °F /  9.2 °C 29.90in /  1012.4hPa West 9.0mph /  14.5km/h 23.0mph /  37km/h 40% 0.00in /  0mm
14:34 74.8 °F /  23.8 °C 48.9 °F /  9.4 °C 29.90in /  1012.4hPa SSW 7.0mph /  11.3km/h 21.0mph /  33.8km/h 40% 0.00in /  0mm
14:39 74.7 °F /  23.7 °C 48.1 °F /  8.9 °C 29.90in /  1012.4hPa West 5.0mph /  8km/h 23.0mph /  37km/h 39% 0.00in /  0mm
14:44 74.5 °F /  23.6 °C 48.6 °F /  9.2 °C 29.90in /  1012.4hPa WNW 11.0mph /  17.7km/h 21.0mph /  33.8km/h 40% 0.00in /  0mm
14:49 74.2 °F /  23.4 °C 48.3 °F /  9.1 °C 29.91in /  1012.8hPa SW 15.0mph /  24.1km/h 24.0mph /  38.6km/h 40% 0.00in /  0mm
14:54 73.9 °F /  23.3 °C 48.1 °F /  8.9 °C 29.91in /  1012.8hPa WSW 12.0mph /  19.3km/h 24.0mph /  38.6km/h 40% 0.00in /  0mm
14:59 73.7 °F /  23.2 °C 47.2 °F /  8.4 °C 29.91in /  1012.8hPa WSW 12.0mph /  19.3km/h 22.0mph /  35.4km/h 39% 0.00in /  0mm
15:04 73.3 °F /  22.9 °C 46.8 °F /  8.2 °C 29.92in /  1013.1hPa WSW 12.0mph /  19.3km/h 23.0mph /  37km/h 39% 0.00in /  0mm
15:09 72.5 °F /  22.5 °C 46.1 °F /  7.8 °C 29.93in /  1013.4hPa WSW 12.0mph /  19.3km/h 23.0mph /  37km/h 39% 0.00in /  0mm
15:14 71.7 °F /  22.1 °C 46.1 °F /  7.8 °C 29.93in /  1013.4hPa WSW 12.0mph /  19.3km/h 23.0mph /  37km/h 40% 0.00in /  0mm
15:19 71.3 °F /  21.8 °C 47.0 °F /  8.3 °C 29.93in /  1013.4hPa WSW 14.0mph /  22.5km/h 22.0mph /  35.4km/h 42% 0.00in /  0mm
15:24 71.1 °F /  21.7 °C 46.8 °F /  8.2 °C 29.93in /  1013.4hPa WSW 11.0mph /  17.7km/h 22.0mph /  35.4km/h 42% 0.00in /  0mm
15:29 71.2 °F /  21.8 °C 46.9 °F /  8.3 °C 29.93in /  1013.4hPa SW 13.0mph /  20.9km/h 28.0mph /  45.1km/h 42% 0.00in /  0mm
15:34 71.3 °F /  21.8 °C 47.0 °F /  8.3 °C 29.93in /  1013.4hPa SW 9.0mph /  14.5km/h 18.0mph /  29km/h 42% 0.00in /  0mm
15:39 71.5 °F /  21.9 °C 47.8 °F /  8.8 °C 29.94in /  1013.8hPa NW 7.0mph /  11.3km/h 23.0mph /  37km/h 43% 0.00in /  0mm
15:44 71.4 °F /  21.9 °C 47.1 °F /  8.4 °C 29.94in /  1013.8hPa WNW 8.0mph /  12.9km/h 22.0mph /  35.4km/h 42% 0.00in /  0mm
15:49 71.4 °F /  21.9 °C 47.7 °F /  8.7 °C 29.93in /  1013.4hPa West 15.0mph /  24.1km/h 24.0mph /  38.6km/h 43% 0.00in /  0mm
15:54 71.4 °F /  21.9 °C 47.7 °F /  8.7 °C 29.93in /  1013.4hPa WSW 11.0mph /  17.7km/h 24.0mph /  38.6km/h 43% 0.00in /  0mm
15:59 71.9 °F /  22.2 °C 47.6 °F /  8.7 °C 29.93in /  1013.4hPa WSW 11.0mph /  17.7km/h 21.0mph /  33.8km/h 42% 0.00in /  0mm
16:04 72.2 °F /  22.3 °C 47.8 °F /  8.8 °C 29.92in /  1013.1hPa WSW 10.0mph /  16.1km/h 21.0mph /  33.8km/h 42% 0.00in /  0mm
16:09 72.5 °F /  22.5 °C 47.5 °F /  8.6 °C 29.91in /  1012.8hPa WSW 8.0mph /  12.9km/h 21.0mph /  33.8km/h 41% 0.00in /  0mm
16:14 72.1 °F /  22.3 °C 47.1 °F /  8.4 °C 29.91in /  1012.8hPa SW 10.0mph /  16.1km/h 16.0mph /  25.7km/h 41% 0.00in /  0mm
16:19 71.8 °F /  22.1 °C 47.5 °F /  8.6 °C 29.90in /  1012.4hPa SW 6.0mph /  9.7km/h 17.0mph /  27.4km/h 42% 0.00in /  0mm
16:24 71.2 °F /  21.8 °C 46.9 °F /  8.3 °C 29.90in /  1012.4hPa SW 8.0mph /  12.9km/h 17.0mph /  27.4km/h 42% 0.00in /  0mm
16:29 70.4 °F /  21.3 °C 47.4 °F /  8.6 °C 29.87in /  1011.4hPa SW 8.0mph /  12.9km/h 17.0mph /  27.4km/h 44% 0.00in /  0mm
16:34 70.2 °F /  21.2 °C 47.9 °F /  8.8 °C 29.86in /  1011.1hPa SW 7.0mph /  11.3km/h 18.0mph /  29km/h 45% 0.00in /  0mm
16:39 70.1 °F /  21.2 °C 47.8 °F /  8.8 °C 29.86in /  1011.1hPa SW 4.0mph /  6.4km/h 13.0mph /  20.9km/h 45% 0.00in /  0mm
16:44 70.4 °F /  21.3 °C 48.0 °F /  8.9 °C 29.87in /  1011.4hPa WSW 4.0mph /  6.4km/h 11.0mph /  17.7km/h 45% 0.00in /  0mm
16:49 70.7 °F /  21.5 °C 48.9 °F /  9.4 °C 29.86in /  1011.1hPa South 5.0mph /  8km/h 9.0mph /  14.5km/h 46% 0.00in /  0mm
16:54 71.1 °F /  21.7 °C 49.3 °F /  9.6 °C 29.87in /  1011.4hPa SW 5.0mph /  8km/h 9.0mph /  14.5km/h 46% 0.00in /  0mm
16:59 71.2 °F /  21.8 °C 48.8 °F /  9.3 °C 29.87in /  1011.4hPa SW 4.0mph /  6.4km/h 9.0mph /  14.5km/h 45% 0.00in /  0mm
17:04 71.3 °F /  21.8 °C 48.9 °F /  9.4 °C 29.87in /  1011.4hPa WSW 4.0mph /  6.4km/h 8.0mph /  12.9km/h 45% 0.00in /  0mm
17:09 71.3 °F /  21.8 °C 48.9 °F /  9.4 °C 29.88in /  1011.7hPa SW 4.0mph /  6.4km/h 8.0mph /  12.9km/h 45% 0.00in /  0mm
17:14 71.4 °F /  21.9 °C 48.9 °F /  9.4 °C 29.88in /  1011.7hPa WSW 3.0mph /  4.8km/h 7.0mph /  11.3km/h 45% 0.00in /  0mm
17:19 71.8 °F /  22.1 °C 49.3 °F /  9.6 °C 29.89in /  1012.1hPa WNW 5.0mph /  8km/h 5.0mph /  8km/h 45% 0.00in /  0mm
17:24 72.5 °F /  22.5 °C 49.9 °F /  9.9 °C 29.90in /  1012.4hPa West 4.0mph /  6.4km/h 8.0mph /  12.9km/h 45% 0.00in /  0mm
17:29 73.1 °F /  22.8 °C 49.9 °F /  9.9 °C 29.90in /  1012.4hPa WNW 5.0mph /  8km/h 9.0mph /  14.5km/h 44% 0.00in /  0mm
17:34 73.5 °F /  23.1 °C 49.0 °F /  9.4 °C 29.91in /  1012.8hPa West 7.0mph /  11.3km/h 12.0mph /  19.3km/h 42% 0.00in /  0mm
17:39 73.4 °F /  23 °C 49.5 °F /  9.7 °C 29.91in /  1012.8hPa WNW 5.0mph /  8km/h 10.0mph /  16.1km/h 43% 0.00in /  0mm
17:44 73.0 °F /  22.8 °C 49.2 °F /  9.6 °C 29.91in /  1012.8hPa NW 6.0mph /  9.7km/h 8.0mph /  12.9km/h 43% 0.00in /  0mm
17:49 72.7 °F /  22.6 °C 49.5 °F /  9.7 °C 29.91in /  1012.8hPa WNW 3.0mph /  4.8km/h 9.0mph /  14.5km/h 44% 0.00in /  0mm
17:54 72.6 °F /  22.6 °C 50.0 °F /  10 °C 29.91in /  1012.8hPa WNW 4.0mph /  6.4km/h 10.0mph /  16.1km/h 45% 0.00in /  0mm
17:59 72.8 °F /  22.7 °C 50.2 °F /  10.1 °C 29.92in /  1013.1hPa WNW 4.0mph /  6.4km/h 10.0mph /  16.1km/h 45% 0.00in /  0mm
18:04 73.0 °F /  22.8 °C 50.4 °F /  10.2 °C 29.92in /  1013.1hPa NW 5.0mph /  8km/h 7.0mph /  11.3km/h 45% 0.00in /  0mm
18:09 73.1 °F /  22.8 °C 51.1 °F /  10.6 °C 29.92in /  1013.1hPa WNW 9.0mph /  14.5km/h 11.0mph /  17.7km/h 46% 0.00in /  0mm
18:14 73.1 °F /  22.8 °C 50.5 °F /  10.3 °C 29.92in /  1013.1hPa WNW 5.0mph /  8km/h 9.0mph /  14.5km/h 45% 0.00in /  0mm
18:19 73.2 °F /  22.9 °C 50.6 °F /  10.3 °C 29.92in /  1013.1hPa West 3.0mph /  4.8km/h 10.0mph /  16.1km/h 45% 0.00in /  0mm
18:24 73.1 °F /  22.8 °C 50.5 °F /  10.3 °C 29.92in /  1013.1hPa WNW 4.0mph /  6.4km/h 10.0mph /  16.1km/h 45% 0.00in /  0mm
18:29 73.2 °F /  22.9 °C 50.6 °F /  10.3 °C 29.93in /  1013.4hPa West 4.0mph /  6.4km/h 8.0mph /  12.9km/h 45% 0.00in /  0mm
18:34 73.2 °F /  22.9 °C 50.6 °F /  10.3 °C 29.93in /  1013.4hPa West 5.0mph /  8km/h 12.0mph /  19.3km/h 45% 0.00in /  0mm
18:39 73.3 °F /  22.9 °C 50.7 °F /  10.4 °C 29.93in /  1013.4hPa West 5.0mph /  8km/h 12.0mph /  19.3km/h 45% 0.00in /  0mm
18:44 73.3 °F /  22.9 °C 51.3 °F /  10.7 °C 29.93in /  1013.4hPa West 3.0mph /  4.8km/h 9.0mph /  14.5km/h 46% 0.00in /  0mm
18:49 73.2 °F /  22.9 °C 50.6 °F /  10.3 °C 29.93in /  1013.4hPa West 2.0mph /  3.2km/h 8.0mph /  12.9km/h 45% 0.00in /  0mm
18:54 73.1 °F /  22.8 °C 51.1 °F /  10.6 °C 29.93in /  1013.4hPa West 2.0mph /  3.2km/h 8.0mph /  12.9km/h 46% 0.00in /  0mm
18:59 73.0 °F /  22.8 °C 50.4 °F /  10.2 °C 29.94in /  1013.8hPa West 2.0mph /  3.2km/h 9.0mph /  14.5km/h 45% 0.00in /  0mm
19:04 72.9 °F /  22.7 °C 50.3 °F /  10.2 °C 29.94in /  1013.8hPa WNW 3.0mph /  4.8km/h 6.0mph /  9.7km/h 45% 0.00in /  0mm
19:09 72.8 °F /  22.7 °C 50.2 °F /  10.1 °C 29.94in /  1013.8hPa West 2.0mph /  3.2km/h 6.0mph /  9.7km/h 45% 0.00in /  0mm
19:14 72.7 °F /  22.6 °C 50.7 °F /  10.4 °C 29.94in /  1013.8hPa West 2.0mph /  3.2km/h 7.0mph /  11.3km/h 46% 0.00in /  0mm
19:19 72.6 °F /  22.6 °C 50.6 °F /  10.3 °C 29.94in /  1013.8hPa West 1.0mph /  1.6km/h 5.0mph /  8km/h 46% 0.00in /  0mm
19:24 72.6 °F /  22.6 °C 50.6 °F /  10.3 °C 29.93in /  1013.4hPa SW 2.0mph /  3.2km/h 5.0mph /  8km/h 46% 0.00in /  0mm
19:29 72.2 °F /  22.3 °C 50.3 °F /  10.2 °C 29.94in /  1013.8hPa SSW 2.0mph /  3.2km/h 5.0mph /  8km/h 46% 0.00in /  0mm
19:34 71.9 °F /  22.2 °C 50.0 °F /  10 °C 29.94in /  1013.8hPa SSW 3.0mph /  4.8km/h 6.0mph /  9.7km/h 46% 0.00in /  0mm
19:39 71.3 °F /  21.8 °C 49.4 °F /  9.7 °C 29.94in /  1013.8hPa SSW 3.0mph /  4.8km/h 6.0mph /  9.7km/h 46% 0.00in /  0mm
19:44 70.5 °F /  21.4 °C 49.3 °F /  9.6 °C 29.94in /  1013.8hPa South 3.0mph /  4.8km/h 7.0mph /  11.3km/h 47% 0.00in /  0mm
19:49 69.6 °F /  20.9 °C 49.0 °F /  9.4 °C 29.94in /  1013.8hPa South 2.0mph /  3.2km/h 5.0mph /  8km/h 48% 0.00in /  0mm
19:54 68.8 °F /  20.4 °C 48.3 °F /  9.1 °C 29.95in /  1014.1hPa SSE 6.0mph /  9.7km/h 8.0mph /  12.9km/h 48% 0.00in /  0mm
19:59 67.7 °F /  19.8 °C 48.4 °F /  9.1 °C 29.95in /  1014.1hPa South 4.0mph /  6.4km/h 8.0mph /  12.9km/h 50% 0.00in /  0mm
20:04 66.9 °F /  19.4 °C 48.2 °F /  9 °C 29.95in /  1014.1hPa South 5.0mph /  8km/h 8.0mph /  12.9km/h 51% 0.00in /  0mm
20:09 66.2 °F /  19 °C 48.0 °F /  8.9 °C 29.95in /  1014.1hPa South 4.0mph /  6.4km/h 7.0mph /  11.3km/h 52% 0.00in /  0mm
20:14 65.7 °F /  18.7 °C 48.1 °F /  8.9 °C 29.95in /  1014.1hPa South 4.0mph /  6.4km/h 7.0mph /  11.3km/h 53% 0.00in /  0mm
20:19 65.2 °F /  18.4 °C 48.1 °F /  8.9 °C 29.96in /  1014.4hPa SSW 3.0mph /  4.8km/h 5.0mph /  8km/h 54% 0.00in /  0mm
20:24 64.9 °F /  18.3 °C 48.3 °F /  9.1 °C 29.96in /  1014.4hPa South 2.0mph /  3.2km/h 6.0mph /  9.7km/h 55% 0.00in /  0mm
20:29 64.6 °F /  18.1 °C 48.5 °F /  9.2 °C 29.97in /  1014.8hPa South 6.0mph /  9.7km/h 9.0mph /  14.5km/h 56% 0.00in /  0mm
20:34 64.3 °F /  17.9 °C 48.7 °F /  9.3 °C 29.97in /  1014.8hPa SSW 2.0mph /  3.2km/h 6.0mph /  9.7km/h 57% 0.00in /  0mm
20:39 64.0 °F /  17.8 °C 48.5 °F /  9.2 °C 29.97in /  1014.8hPa South 4.0mph /  6.4km/h 7.0mph /  11.3km/h 57% 0.00in /  0mm
20:44 63.8 °F /  17.7 °C 48.7 °F /  9.3 °C 29.97in /  1014.8hPa SSW 4.0mph /  6.4km/h 7.0mph /  11.3km/h 58% 0.00in /  0mm
20:49 63.4 °F /  17.4 °C 48.4 °F /  9.1 °C 29.97in /  1014.8hPa SW 2.0mph /  3.2km/h 7.0mph /  11.3km/h 58% 0.00in /  0mm
20:54 63.2 °F /  17.3 °C 48.6 °F /  9.2 °C 29.97in /  1014.8hPa SW 7.0mph /  11.3km/h 7.0mph /  11.3km/h 59% 0.00in /  0mm
20:59 63.0 °F /  17.2 °C 48.4 °F /  9.1 °C 29.97in /  1014.8hPa SSW 3.0mph /  4.8km/h 7.0mph /  11.3km/h 59% 0.00in /  0mm
21:04 62.9 °F /  17.2 °C 48.8 °F /  9.3 °C 29.97in /  1014.8hPa SSW 3.0mph /  4.8km/h 7.0mph /  11.3km/h 60% 0.00in /  0mm
21:09 62.7 °F /  17.1 °C 48.6 °F /  9.2 °C 29.98in /  1015.1hPa SSW 3.0mph /  4.8km/h 6.0mph /  9.7km/h 60% 0.00in /  0mm
21:14 62.7 °F /  17.1 °C 48.6 °F /  9.2 °C 29.98in /  1015.1hPa SW 3.0mph /  4.8km/h 7.0mph /  11.3km/h 60% 0.00in /  0mm
21:19 62.6 °F /  17 °C 49.0 °F /  9.4 °C 29.98in /  1015.1hPa SW 3.0mph /  4.8km/h 7.0mph /  11.3km/h 61% 0.00in /  0mm
21:24 62.5 °F /  16.9 °C 48.9 °F /  9.4 °C 29.98in /  1015.1hPa SSW 3.0mph /  4.8km/h 5.0mph /  8km/h 61% 0.00in /  0mm
21:29 62.5 °F /  16.9 °C 48.9 °F /  9.4 °C 29.98in /  1015.1hPa SW 1.0mph /  1.6km/h 4.0mph /  6.4km/h 61% 0.00in /  0mm
21:34 62.5 °F /  16.9 °C 49.3 °F /  9.6 °C 29.97in /  1014.8hPa SSW 3.0mph /  4.8km/h 4.0mph /  6.4km/h 62% 0.00in /  0mm
21:39 62.5 °F /  16.9 °C 51.0 °F /  10.6 °C 29.98in /  1015.1hPa SSW 2.0mph /  3.2km/h 3.0mph /  4.8km/h 66% 0.00in /  0mm
21:44 62.5 °F /  16.9 °C 51.8 °F /  11 °C 29.98in /  1015.1hPa Calm   4.0mph /  6.4km/h 68% 0.01in /  0.25mm
21:49 62.3 °F /  16.8 °C 52.0 °F /  11.1 °C 29.98in /  1015.1hPa South 1.0mph /  1.6km/h 6.0mph /  9.7km/h 69% 0.04in /  1.02mm
21:54 62.1 °F /  16.7 °C 52.6 °F /  11.4 °C 29.97in /  1014.8hPa Calm   4.0mph /  6.4km/h 71% 0.04in /  1.02mm
21:59 61.9 °F /  16.6 °C 52.8 °F /  11.6 °C 29.98in /  1015.1hPa Calm   4.0mph /  6.4km/h 72% 0.04in /  1.02mm
22:04 61.7 °F /  16.5 °C 53.0 °F /  11.7 °C 29.98in /  1015.1hPa Calm   3.0mph /  4.8km/h 73% 0.04in /  1.02mm
22:09 61.4 °F /  16.3 °C 52.7 °F /  11.5 °C 29.98in /  1015.1hPa Calm   3.0mph /  4.8km/h 73% 0.04in /  1.02mm
22:14 61.2 °F /  16.2 °C 52.8 °F /  11.6 °C 29.98in /  1015.1hPa Calm   2.0mph /  3.2km/h 74% 0.04in /  1.02mm
22:19 61.0 °F /  16.1 °C 53.0 °F /  11.7 °C 29.98in /  1015.1hPa Calm     75% 0.04in /  1.02mm
22:24 60.8 °F /  16 °C 53.2 °F /  11.8 °C 29.98in /  1015.1hPa Calm     76% 0.04in /  1.02mm
22:29 60.7 °F /  15.9 °C 53.1 °F /  11.7 °C 29.98in /  1015.1hPa Calm     76% 0.04in /  1.02mm
22:34 60.5 °F /  15.8 °C 52.9 °F /  11.6 °C 29.98in /  1015.1hPa Calm     76% 0.04in /  1.02mm
22:39 60.4 °F /  15.8 °C 53.2 °F /  11.8 °C 29.98in /  1015.1hPa Calm     77% 0.04in /  1.02mm
22:44 60.2 °F /  15.7 °C 53.0 °F /  11.7 °C 29.98in /  1015.1hPa Calm     77% 0.03in /  0.76mm
22:49 60.1 °F /  15.6 °C 52.9 °F /  11.6 °C 29.98in /  1015.1hPa Calm     77% 0.00in /  0mm
22:54 59.9 °F /  15.5 °C 52.7 °F /  11.5 °C 29.98in /  1015.1hPa Calm     77% 0.00in /  0mm
22:59 59.9 °F /  15.5 °C 53.0 °F /  11.7 °C 29.98in /  1015.1hPa Calm     78% 0.00in /  0mm
23:04 59.8 °F /  15.4 °C 52.9 °F /  11.6 °C 29.98in /  1015.1hPa Calm     78% 0.00in /  0mm
23:09 59.8 °F /  15.4 °C 52.9 °F /  11.6 °C 30.00in /  1015.8hPa West 1.0mph /  1.6km/h 4.0mph /  6.4km/h 78% 0.00in /  0mm
23:14 59.7 °F /  15.4 °C 52.8 °F /  11.6 °C 29.99in /  1015.5hPa West 1.0mph /  1.6km/h 4.0mph /  6.4km/h 78% 0.00in /  0mm
23:19 59.7 °F /  15.4 °C 52.8 °F /  11.6 °C 29.99in /  1015.5hPa West 1.0mph /  1.6km/h 4.0mph /  6.4km/h 78% 0.00in /  0mm
23:24 59.7 °F /  15.4 °C 52.5 °F /  11.4 °C 29.99in /  1015.5hPa Calm   1.0mph /  1.6km/h 77% 0.00in /  0mm
23:29 59.7 °F /  15.4 °C 52.5 °F /  11.4 °C 29.99in /  1015.5hPa Calm     77% 0.00in /  0mm
23:34 59.7 °F /  15.4 °C 52.5 °F /  11.4 °C 29.99in /  1015.5hPa Calm     77% 0.00in /  0mm
23:39 59.7 °F /  15.4 °C 52.5 °F /  11.4 °C 29.98in /  1015.1hPa Calm     77% 0.00in /  0mm
23:44 59.7 °F /  15.4 °C 52.5 °F /  11.4 °C 29.98in /  1015.1hPa Calm     77% 0.00in /  0mm
23:49 59.6 °F /  15.3 °C 52.4 °F /  11.3 °C 29.98in /  1015.1hPa Calm     77% 0.00in /  0mm
23:54 59.5 °F /  15.3 °C 52.3 °F /  11.3 °C 29.98in /  1015.1hPa Calm   3.0mph /  4.8km/h 77% 0.00in /  0mm
23:59 59.3 °F /  15.2 °C 51.7 °F /  10.9 °C 29.98in /  1015.1hPa Calm   2.0mph /  3.2km/h 76% 0.00in /  0mm
Buffalo, New York, USA
Compliments of Weather Underground - 2.5 mb